sensor_id;sensor_type;location;lat;lon;timestamp;temperature;humidity
4811;DHT22;2419;51.276;6.472;2022-07-29T00:01:20;18.90;99.90
4811;DHT22;2419;51.276;6.472;2022-07-29T00:03:48;18.90;99.90
4811;DHT22;2419;51.276;6.472;2022-07-29T00:06:16;18.90;99.90
4811;DHT22;2419;51.276;6.472;2022-07-29T00:08:45;18.90;99.90
4811;DHT22;2419;51.276;6.472;2022-07-29T00:11:13;18.90;99.90
4811;DHT22;2419;51.276;6.472;2022-07-29T00:13:42;18.90;99.90
4811;DHT22;2419;51.276;6.472;2022-07-29T00:16:16;18.90;99.90
4811;DHT22;2419;51.276;6.472;2022-07-29T00:18:45;18.80;99.90
4811;DHT22;2419;51.276;6.472;2022-07-29T00:21:13;18.80;99.90
4811;DHT22;2419;51.276;6.472;2022-07-29T00:23:41;18.80;99.90
4811;DHT22;2419;51.276;6.472;2022-07-29T00:26:09;18.70;99.90
4811;DHT22;2419;51.276;6.472;2022-07-29T00:28:37;18.70;99.90
4811;DHT22;2419;51.276;6.472;2022-07-29T00:31:07;18.70;99.90
4811;DHT22;2419;51.276;6.472;2022-07-29T00:33:35;18.70;99.90
4811;DHT22;2419;51.276;6.472;2022-07-29T00:36:04;18.70;99.90
4811;DHT22;2419;51.276;6.472;2022-07-29T00:38:31;18.60;99.90
4811;DHT22;2419;51.276;6.472;2022-07-29T00:40:59;18.60;99.90
4811;DHT22;2419;51.276;6.472;2022-07-29T00:43:28;18.60;99.90
4811;DHT22;2419;51.276;6.472;2022-07-29T00:45:56;18.60;99.90
4811;DHT22;2419;51.276;6.472;2022-07-29T00:48:25;18.50;99.90
4811;DHT22;2419;51.276;6.472;2022-07-29T00:50:53;18.50;99.90
4811;DHT22;2419;51.276;6.472;2022-07-29T00:53:22;18.60;99.90
4811;DHT22;2419;51.276;6.472;2022-07-29T00:55:53;18.60;1.00
4811;DHT22;2419;51.276;6.472;2022-07-29T00:58:22;18.60;99.90
4811;DHT22;2419;51.276;6.472;2022-07-29T01:00:50;18.60;87.40
4811;DHT22;2419;51.276;6.472;2022-07-29T01:03:19;18.70;1.00
4811;DHT22;2419;51.276;6.472;2022-07-29T01:05:49;18.70;99.90
4811;DHT22;2419;51.276;6.472;2022-07-29T01:08:18;18.70;99.90
4811;DHT22;2419;51.276;6.472;2022-07-29T01:10:48;18.70;99.90
4811;DHT22;2419;51.276;6.472;2022-07-29T01:13:17;18.60;99.90
4811;DHT22;2419;51.276;6.472;2022-07-29T01:15:49;18.70;99.90
4811;DHT22;2419;51.276;6.472;2022-07-29T01:18:24;18.60;62.40
4811;DHT22;2419;51.276;6.472;2022-07-29T01:21:15;18.60;99.90
4811;DHT22;2419;51.276;6.472;2022-07-29T01:24:05;18.70;99.90
4811;DHT22;2419;51.276;6.472;2022-07-29T01:26:46;18.60;99.90
4811;DHT22;2419;51.276;6.472;2022-07-29T01:29:22;18.60;99.90
4811;DHT22;2419;51.276;6.472;2022-07-29T01:32:07;18.60;99.90
4811;DHT22;2419;51.276;6.472;2022-07-29T01:34:58;18.50;99.90
4811;DHT22;2419;51.276;6.472;2022-07-29T01:37:35;18.50;99.90
4811;DHT22;2419;51.276;6.472;2022-07-29T01:40:05;18.50;1.00
4811;DHT22;2419;51.276;6.472;2022-07-29T01:42:42;18.50;1.00
4811;DHT22;2419;51.276;6.472;2022-07-29T01:45:15;18.50;1.00
4811;DHT22;2419;51.276;6.472;2022-07-29T01:47:51;18.50;1.00
4811;DHT22;2419;51.276;6.472;2022-07-29T01:50:30;18.50;1.00
4811;DHT22;2419;51.276;6.472;2022-07-29T01:53:02;18.50;99.90
4811;DHT22;2419;51.276;6.472;2022-07-29T01:55:35;18.50;99.90
4811;DHT22;2419;51.276;6.472;2022-07-29T01:58:05;18.50;98.90
4811;DHT22;2419;51.276;6.472;2022-07-29T02:00:37;18.50;33.70
4811;DHT22;2419;51.276;6.472;2022-07-29T02:03:11;18.50;1.00
4811;DHT22;2419;51.276;6.472;2022-07-29T02:05:42;18.50;1.00
4811;DHT22;2419;51.276;6.472;2022-07-29T02:08:12;18.50;1.00
4811;DHT22;2419;51.276;6.472;2022-07-29T02:10:42;18.50;1.00
4811;DHT22;2419;51.276;6.472;2022-07-29T02:13:11;18.50;1.00
4811;DHT22;2419;51.276;6.472;2022-07-29T02:15:42;18.50;1.00
4811;DHT22;2419;51.276;6.472;2022-07-29T02:18:15;18.50;99.90
4811;DHT22;2419;51.276;6.472;2022-07-29T02:20:46;18.50;99.90
4811;DHT22;2419;51.276;6.472;2022-07-29T02:23:18;18.40;99.90
4811;DHT22;2419;51.276;6.472;2022-07-29T02:25:48;18.30;1.00
4811;DHT22;2419;51.276;6.472;2022-07-29T02:28:19;18.30;8.00
4811;DHT22;2419;51.276;6.472;2022-07-29T02:30:50;18.20;11.90
4811;DHT22;2419;51.276;6.472;2022-07-29T02:33:21;18.20;99.90
4811;DHT22;2419;51.276;6.472;2022-07-29T02:35:51;18.10;99.90
4811;DHT22;2419;51.276;6.472;2022-07-29T02:38:22;18.10;99.90
4811;DHT22;2419;51.276;6.472;2022-07-29T02:41:12;18.00;99.90
4811;DHT22;2419;51.276;6.472;2022-07-29T02:43:43;18.00;99.90
4811;DHT22;2419;51.276;6.472;2022-07-29T02:46:16;17.90;1.00
4811;DHT22;2419;51.276;6.472;2022-07-29T02:48:59;17.90;1.00
4811;DHT22;2419;51.276;6.472;2022-07-29T02:51:33;17.90;1.00
4811;DHT22;2419;51.276;6.472;2022-07-29T02:54:11;17.90;1.00
4811;DHT22;2419;51.276;6.472;2022-07-29T02:56:44;17.90;1.00
4811;DHT22;2419;51.276;6.472;2022-07-29T02:59:18;17.80;1.00
4811;DHT22;2419;51.276;6.472;2022-07-29T03:01:50;17.80;1.00
4811;DHT22;2419;51.276;6.472;2022-07-29T03:04:19;17.90;1.00
4811;DHT22;2419;51.276;6.472;2022-07-29T03:06:49;17.90;1.00
4811;DHT22;2419;51.276;6.472;2022-07-29T03:09:18;17.90;1.00
4811;DHT22;2419;51.276;6.472;2022-07-29T03:11:47;17.90;1.00
4811;DHT22;2419;51.276;6.472;2022-07-29T03:14:18;17.80;1.00
4811;DHT22;2419;51.276;6.472;2022-07-29T03:16:49;17.80;1.00
4811;DHT22;2419;51.276;6.472;2022-07-29T03:19:19;17.70;1.00
4811;DHT22;2419;51.276;6.472;2022-07-29T03:21:48;17.60;21.00
4811;DHT22;2419;51.276;6.472;2022-07-29T03:24:27;17.50;58.60
4811;DHT22;2419;51.276;6.472;2022-07-29T03:26:56;17.30;94.70
4811;DHT22;2419;51.276;6.472;2022-07-29T03:29:25;17.20;99.90
4811;DHT22;2419;51.276;6.472;2022-07-29T03:32:03;16.90;99.90
4811;DHT22;2419;51.276;6.472;2022-07-29T03:34:35;16.70;99.90
4811;DHT22;2419;51.276;6.472;2022-07-29T03:37:05;16.60;99.90
4811;DHT22;2419;51.276;6.472;2022-07-29T03:39:37;16.50;99.90
4811;DHT22;2419;51.276;6.472;2022-07-29T03:42:08;16.40;99.90
4811;DHT22;2419;51.276;6.472;2022-07-29T03:44:39;16.30;99.90
4811;DHT22;2419;51.276;6.472;2022-07-29T03:47:11;16.20;99.90
4811;DHT22;2419;51.276;6.472;2022-07-29T03:49:41;16.10;99.90
4811;DHT22;2419;51.276;6.472;2022-07-29T03:52:10;16.00;99.90
4811;DHT22;2419;51.276;6.472;2022-07-29T03:54:38;15.90;99.90
4811;DHT22;2419;51.276;6.472;2022-07-29T03:57:07;15.80;99.90
4811;DHT22;2419;51.276;6.472;2022-07-29T03:59:36;15.70;99.90
4811;DHT22;2419;51.276;6.472;2022-07-29T04:02:08;15.70;99.90
4811;DHT22;2419;51.276;6.472;2022-07-29T04:04:38;15.70;99.90
4811;DHT22;2419;51.276;6.472;2022-07-29T04:07:06;15.70;99.90
4811;DHT22;2419;51.276;6.472;2022-07-29T04:09:35;15.80;99.90
4811;DHT22;2419;51.276;6.472;2022-07-29T04:12:05;15.80;99.90
4811;DHT22;2419;51.276;6.472;2022-07-29T04:14:37;15.80;99.90
4811;DHT22;2419;51.276;6.472;2022-07-29T04:17:05;15.90;99.90
4811;DHT22;2419;51.276;6.472;2022-07-29T04:19:38;15.80;99.90
4811;DHT22;2419;51.276;6.472;2022-07-29T04:22:06;15.90;99.90
4811;DHT22;2419;51.276;6.472;2022-07-29T04:24:34;15.80;99.90
4811;DHT22;2419;51.276;6.472;2022-07-29T04:27:03;15.90;99.90
4811;DHT22;2419;51.276;6.472;2022-07-29T04:29:31;15.80;99.90
4811;DHT22;2419;51.276;6.472;2022-07-29T04:31:59;15.80;99.90
4811;DHT22;2419;51.276;6.472;2022-07-29T04:34:27;15.80;99.90
4811;DHT22;2419;51.276;6.472;2022-07-29T04:37:02;15.80;99.90
4811;DHT22;2419;51.276;6.472;2022-07-29T04:39:31;15.90;99.90
4811;DHT22;2419;51.276;6.472;2022-07-29T04:41:59;15.90;99.90
4811;DHT22;2419;51.276;6.472;2022-07-29T04:44:28;15.80;99.90
4811;DHT22;2419;51.276;6.472;2022-07-29T04:46:59;15.80;99.90
4811;DHT22;2419;51.276;6.472;2022-07-29T04:49:27;15.80;99.90
4811;DHT22;2419;51.276;6.472;2022-07-29T04:51:57;15.80;99.90
4811;DHT22;2419;51.276;6.472;2022-07-29T04:54:25;15.80;99.90
4811;DHT22;2419;51.276;6.472;2022-07-29T04:56:53;15.80;99.90
4811;DHT22;2419;51.276;6.472;2022-07-29T04:59:21;15.80;99.90
4811;DHT22;2419;51.276;6.472;2022-07-29T05:01:49;15.80;99.90
4811;DHT22;2419;51.276;6.472;2022-07-29T05:04:18;15.80;99.90
4811;DHT22;2419;51.276;6.472;2022-07-29T05:06:46;15.80;99.90
4811;DHT22;2419;51.276;6.472;2022-07-29T05:09:16;15.80;99.90
4811;DHT22;2419;51.276;6.472;2022-07-29T05:11:44;15.70;99.90
4811;DHT22;2419;51.276;6.472;2022-07-29T05:14:12;15.60;99.90
4811;DHT22;2419;51.276;6.472;2022-07-29T05:16:45;15.80;99.90
4811;DHT22;2419;51.276;6.472;2022-07-29T05:19:23;15.80;99.90
4811;DHT22;2419;51.276;6.472;2022-07-29T05:21:52;15.70;99.90
4811;DHT22;2419;51.276;6.472;2022-07-29T05:24:25;15.80;99.90
4811;DHT22;2419;51.276;6.472;2022-07-29T05:26:54;15.60;99.90
4811;DHT22;2419;51.276;6.472;2022-07-29T05:29:22;15.60;99.90
4811;DHT22;2419;51.276;6.472;2022-07-29T05:32:11;15.70;99.90
4811;DHT22;2419;51.276;6.472;2022-07-29T05:34:39;15.60;99.90
4811;DHT22;2419;51.276;6.472;2022-07-29T05:37:17;15.70;99.90
4811;DHT22;2419;51.276;6.472;2022-07-29T05:39:47;15.70;99.90
4811;DHT22;2419;51.276;6.472;2022-07-29T05:42:23;15.70;99.90
4811;DHT22;2419;51.276;6.472;2022-07-29T05:44:51;15.80;99.90
4811;DHT22;2419;51.276;6.472;2022-07-29T05:47:20;15.80;99.90
4811;DHT22;2419;51.276;6.472;2022-07-29T05:49:49;15.80;99.90
4811;DHT22;2419;51.276;6.472;2022-07-29T05:52:17;15.90;99.90
4811;DHT22;2419;51.276;6.472;2022-07-29T05:54:46;15.90;99.90
4811;DHT22;2419;51.276;6.472;2022-07-29T05:57:15;15.90;99.90
4811;DHT22;2419;51.276;6.472;2022-07-29T05:59:44;15.90;99.90
4811;DHT22;2419;51.276;6.472;2022-07-29T06:02:12;16.00;99.90
4811;DHT22;2419;51.276;6.472;2022-07-29T06:04:40;16.00;99.90
4811;DHT22;2419;51.276;6.472;2022-07-29T06:07:09;15.90;99.90
4811;DHT22;2419;51.276;6.472;2022-07-29T06:09:38;16.10;99.90
4811;DHT22;2419;51.276;6.472;2022-07-29T06:12:08;16.20;99.90
4811;DHT22;2419;51.276;6.472;2022-07-29T06:14:40;16.10;99.90
4811;DHT22;2419;51.276;6.472;2022-07-29T06:17:26;16.00;99.90
4811;DHT22;2419;51.276;6.472;2022-07-29T06:19:57;16.00;99.90
4811;DHT22;2419;51.276;6.472;2022-07-29T06:22:25;15.90;99.90
4811;DHT22;2419;51.276;6.472;2022-07-29T06:25:09;16.00;99.90
4811;DHT22;2419;51.276;6.472;2022-07-29T06:27:39;15.70;99.90
4811;DHT22;2419;51.276;6.472;2022-07-29T06:30:08;15.70;99.90
4811;DHT22;2419;51.276;6.472;2022-07-29T06:32:37;15.50;99.90
4811;DHT22;2419;51.276;6.472;2022-07-29T06:35:09;15.50;99.90
4811;DHT22;2419;51.276;6.472;2022-07-29T06:37:57;15.50;99.90
4811;DHT22;2419;51.276;6.472;2022-07-29T06:40:26;15.60;99.90
4811;DHT22;2419;51.276;6.472;2022-07-29T06:43:14;15.70;99.90
4811;DHT22;2419;51.276;6.472;2022-07-29T06:45:42;15.80;99.90
4811;DHT22;2419;51.276;6.472;2022-07-29T06:48:11;15.60;99.90
4811;DHT22;2419;51.276;6.472;2022-07-29T06:50:39;15.70;99.90
4811;DHT22;2419;51.276;6.472;2022-07-29T06:53:07;15.70;99.90
4811;DHT22;2419;51.276;6.472;2022-07-29T06:55:35;15.70;99.90
4811;DHT22;2419;51.276;6.472;2022-07-29T06:58:04;15.80;99.90
4811;DHT22;2419;51.276;6.472;2022-07-29T07:00:33;15.90;99.90
4811;DHT22;2419;51.276;6.472;2022-07-29T07:03:01;15.90;99.90
4811;DHT22;2419;51.276;6.472;2022-07-29T07:05:29;15.90;99.90
4811;DHT22;2419;51.276;6.472;2022-07-29T07:07:57;15.80;99.90
4811;DHT22;2419;51.276;6.472;2022-07-29T07:10:26;15.90;99.90
4811;DHT22;2419;51.276;6.472;2022-07-29T07:12:55;16.00;99.90
4811;DHT22;2419;51.276;6.472;2022-07-29T07:15:23;16.00;99.90
4811;DHT22;2419;51.276;6.472;2022-07-29T07:18:07;16.00;99.90
4811;DHT22;2419;51.276;6.472;2022-07-29T07:20:35;16.10;99.90
4811;DHT22;2419;51.276;6.472;2022-07-29T07:23:04;16.10;99.90
4811;DHT22;2419;51.276;6.472;2022-07-29T07:25:32;16.10;99.90
4811;DHT22;2419;51.276;6.472;2022-07-29T07:28:00;16.10;99.90
4811;DHT22;2419;51.276;6.472;2022-07-29T07:30:28;16.10;99.90
4811;DHT22;2419;51.276;6.472;2022-07-29T07:32:57;16.10;99.90
4811;DHT22;2419;51.276;6.472;2022-07-29T07:35:27;16.20;99.90
4811;DHT22;2419;51.276;6.472;2022-07-29T07:37:55;16.20;99.90
4811;DHT22;2419;51.276;6.472;2022-07-29T07:40:24;16.30;99.90
4811;DHT22;2419;51.276;6.472;2022-07-29T07:42:53;16.40;99.90
4811;DHT22;2419;51.276;6.472;2022-07-29T07:45:22;16.40;99.90
4811;DHT22;2419;51.276;6.472;2022-07-29T07:47:50;16.30;99.90
4811;DHT22;2419;51.276;6.472;2022-07-29T07:50:18;16.40;99.90
4811;DHT22;2419;51.276;6.472;2022-07-29T07:52:49;16.40;99.90
4811;DHT22;2419;51.276;6.472;2022-07-29T07:55:18;16.40;99.90
4811;DHT22;2419;51.276;6.472;2022-07-29T07:57:48;16.50;99.90
4811;DHT22;2419;51.276;6.472;2022-07-29T08:00:17;16.60;99.90
4811;DHT22;2419;51.276;6.472;2022-07-29T08:02:48;16.80;99.90
4811;DHT22;2419;51.276;6.472;2022-07-29T08:05:17;16.90;99.90
4811;DHT22;2419;51.276;6.472;2022-07-29T08:07:49;17.10;99.90
4811;DHT22;2419;51.276;6.472;2022-07-29T08:10:18;17.30;99.90
4811;DHT22;2419;51.276;6.472;2022-07-29T08:13:02;17.50;99.90
4811;DHT22;2419;51.276;6.472;2022-07-29T08:15:30;17.70;99.90
4811;DHT22;2419;51.276;6.472;2022-07-29T08:17:58;17.90;99.90
4811;DHT22;2419;51.276;6.472;2022-07-29T08:20:34;17.80;99.90
4811;DHT22;2419;51.276;6.472;2022-07-29T08:23:04;17.90;99.90
4811;DHT22;2419;51.276;6.472;2022-07-29T08:25:36;18.00;99.90
4811;DHT22;2419;51.276;6.472;2022-07-29T08:28:06;18.20;99.90
4811;DHT22;2419;51.276;6.472;2022-07-29T08:30:35;18.40;99.90
4811;DHT22;2419;51.276;6.472;2022-07-29T08:33:05;18.60;99.90
4811;DHT22;2419;51.276;6.472;2022-07-29T08:35:33;18.60;99.90
4811;DHT22;2419;51.276;6.472;2022-07-29T08:38:03;18.50;99.90
4811;DHT22;2419;51.276;6.472;2022-07-29T08:40:32;18.60;99.90
4811;DHT22;2419;51.276;6.472;2022-07-29T08:43:04;18.50;99.90
4811;DHT22;2419;51.276;6.472;2022-07-29T08:45:41;18.30;99.90
4811;DHT22;2419;51.276;6.472;2022-07-29T08:48:14;18.20;99.90
4811;DHT22;2419;51.276;6.472;2022-07-29T08:50:46;18.10;99.90
4811;DHT22;2419;51.276;6.472;2022-07-29T08:53:17;17.80;99.90
4811;DHT22;2419;51.276;6.472;2022-07-29T08:55:47;17.90;99.90
4811;DHT22;2419;51.276;6.472;2022-07-29T08:58:20;17.90;99.90
4811;DHT22;2419;51.276;6.472;2022-07-29T09:00:53;17.90;99.90
4811;DHT22;2419;51.276;6.472;2022-07-29T09:03:25;17.90;99.90
4811;DHT22;2419;51.276;6.472;2022-07-29T09:05:53;18.00;99.90
4811;DHT22;2419;51.276;6.472;2022-07-29T09:08:23;18.00;99.90
4811;DHT22;2419;51.276;6.472;2022-07-29T09:10:52;18.10;99.90
4811;DHT22;2419;51.276;6.472;2022-07-29T09:13:20;18.20;99.90
4811;DHT22;2419;51.276;6.472;2022-07-29T09:15:49;18.10;99.90
4811;DHT22;2419;51.276;6.472;2022-07-29T09:18:35;18.20;99.90
4811;DHT22;2419;51.276;6.472;2022-07-29T09:21:05;18.20;99.90
4811;DHT22;2419;51.276;6.472;2022-07-29T09:24:03;18.30;99.90
4811;DHT22;2419;51.276;6.472;2022-07-29T09:26:33;18.40;99.90
4811;DHT22;2419;51.276;6.472;2022-07-29T09:29:24;18.40;99.90
4811;DHT22;2419;51.276;6.472;2022-07-29T09:31:59;18.50;99.90
4811;DHT22;2419;51.276;6.472;2022-07-29T09:34:28;18.70;99.90
4811;DHT22;2419;51.276;6.472;2022-07-29T09:36:58;18.70;99.90
4811;DHT22;2419;51.276;6.472;2022-07-29T09:39:29;19.00;99.90
4811;DHT22;2419;51.276;6.472;2022-07-29T09:41:59;20.10;99.90
4811;DHT22;2419;51.276;6.472;2022-07-29T09:44:41;21.00;99.90
4811;DHT22;2419;51.276;6.472;2022-07-29T09:47:09;21.80;99.90
4811;DHT22;2419;51.276;6.472;2022-07-29T09:49:51;22.00;99.90
4811;DHT22;2419;51.276;6.472;2022-07-29T09:52:20;21.90;99.90
4811;DHT22;2419;51.276;6.472;2022-07-29T09:54:50;21.90;99.90
4811;DHT22;2419;51.276;6.472;2022-07-29T09:57:28;22.80;97.20
4811;DHT22;2419;51.276;6.472;2022-07-29T09:59:58;23.70;82.00
4811;DHT22;2419;51.276;6.472;2022-07-29T10:02:30;24.30;33.60
4811;DHT22;2419;51.276;6.472;2022-07-29T10:05:03;25.10;1.00
4811;DHT22;2419;51.276;6.472;2022-07-29T10:07:46;25.50;1.00
4811;DHT22;2419;51.276;6.472;2022-07-29T10:10:23;25.70;99.90
4811;DHT22;2419;51.276;6.472;2022-07-29T10:12:54;26.30;99.90
4811;DHT22;2419;51.276;6.472;2022-07-29T10:15:27;26.60;50.00
4811;DHT22;2419;51.276;6.472;2022-07-29T10:17:57;26.60;99.90
4811;DHT22;2419;51.276;6.472;2022-07-29T10:20:27;26.60;99.90
4811;DHT22;2419;51.276;6.472;2022-07-29T10:22:55;27.00;99.90
4811;DHT22;2419;51.276;6.472;2022-07-29T10:25:25;27.30;99.90
4811;DHT22;2419;51.276;6.472;2022-07-29T10:27:54;27.60;99.90
4811;DHT22;2419;51.276;6.472;2022-07-29T10:30:24;27.60;90.90
4811;DHT22;2419;51.276;6.472;2022-07-29T10:35:59;26.00;99.90
4811;DHT22;2419;51.276;6.472;2022-07-29T10:38:52;24.60;99.90
4811;DHT22;2419;51.276;6.472;2022-07-29T10:44:23;24.00;5.90
4811;DHT22;2419;51.276;6.472;2022-07-29T10:46:53;23.50;21.80
4811;DHT22;2419;51.276;6.472;2022-07-29T10:49:31;23.30;32.80
4811;DHT22;2419;51.276;6.472;2022-07-29T10:52:04;22.80;49.20
4811;DHT22;2419;51.276;6.472;2022-07-29T10:54:44;22.60;53.90
4811;DHT22;2419;51.276;6.472;2022-07-29T10:57:26;22.50;67.80
4811;DHT22;2419;51.276;6.472;2022-07-29T11:00:31;22.20;84.70
4811;DHT22;2419;51.276;6.472;2022-07-29T11:02:59;21.80;89.00
4811;DHT22;2419;51.276;6.472;2022-07-29T11:05:54;21.80;90.60
4811;DHT22;2419;51.276;6.472;2022-07-29T11:08:40;21.70;88.80
4811;DHT22;2419;51.276;6.472;2022-07-29T11:11:37;21.80;92.00
4811;DHT22;2419;51.276;6.472;2022-07-29T11:14:56;21.80;92.50
4811;DHT22;2419;51.276;6.472;2022-07-29T11:18:03;21.90;90.40
4811;DHT22;2419;51.276;6.472;2022-07-29T11:20:37;21.90;85.50
4811;DHT22;2419;51.276;6.472;2022-07-29T11:23:23;21.80;74.50
4811;DHT22;2419;51.276;6.472;2022-07-29T11:26:13;21.40;78.40
4811;DHT22;2419;51.276;6.472;2022-07-29T11:28:51;21.70;76.40
4811;DHT22;2419;51.276;6.472;2022-07-29T11:31:33;21.70;79.90
4811;DHT22;2419;51.276;6.472;2022-07-29T11:34:21;21.80;79.40
4811;DHT22;2419;51.276;6.472;2022-07-29T11:37:17;21.50;76.10
4811;DHT22;2419;51.276;6.472;2022-07-29T11:40:14;21.60;84.80
4811;DHT22;2419;51.276;6.472;2022-07-29T11:42:45;21.80;85.80
4811;DHT22;2419;51.276;6.472;2022-07-29T11:45:22;21.80;78.50
4811;DHT22;2419;51.276;6.472;2022-07-29T11:48:17;21.80;50.60
4811;DHT22;2419;51.276;6.472;2022-07-29T11:50:59;21.80;64.30
4811;DHT22;2419;51.276;6.472;2022-07-29T11:53:28;21.60;78.10
4811;DHT22;2419;51.276;6.472;2022-07-29T11:55:59;21.70;82.40
4811;DHT22;2419;51.276;6.472;2022-07-29T11:58:29;21.90;84.30
4811;DHT22;2419;51.276;6.472;2022-07-29T12:00:59;21.80;88.10
4811;DHT22;2419;51.276;6.472;2022-07-29T12:03:32;22.00;88.80
4811;DHT22;2419;51.276;6.472;2022-07-29T12:06:04;22.00;88.70
4811;DHT22;2419;51.276;6.472;2022-07-29T12:08:40;22.10;83.70
4811;DHT22;2419;51.276;6.472;2022-07-29T12:11:16;22.10;85.70
4811;DHT22;2419;51.276;6.472;2022-07-29T12:13:47;22.20;85.00
4811;DHT22;2419;51.276;6.472;2022-07-29T12:16:16;22.70;80.10
4811;DHT22;2419;51.276;6.472;2022-07-29T12:19:01;23.30;62.20
4811;DHT22;2419;51.276;6.472;2022-07-29T12:21:44;23.70;27.50
4811;DHT22;2419;51.276;6.472;2022-07-29T12:24:23;23.70;22.40
4811;DHT22;2419;51.276;6.472;2022-07-29T12:26:55;23.80;21.00
4811;DHT22;2419;51.276;6.472;2022-07-29T12:29:24;23.80;23.10
4811;DHT22;2419;51.276;6.472;2022-07-29T12:32:02;23.40;22.40
4811;DHT22;2419;51.276;6.472;2022-07-29T12:34:46;23.30;44.20
4811;DHT22;2419;51.276;6.472;2022-07-29T12:37:15;23.60;50.70
4811;DHT22;2419;51.276;6.472;2022-07-29T12:39:43;24.30;18.90
4811;DHT22;2419;51.276;6.472;2022-07-29T12:42:12;25.10;1.00
4811;DHT22;2419;51.276;6.472;2022-07-29T12:45:14;25.70;1.00
4811;DHT22;2419;51.276;6.472;2022-07-29T12:48:12;26.40;99.90
4811;DHT22;2419;51.276;6.472;2022-07-29T12:50:55;27.20;99.90
4811;DHT22;2419;51.276;6.472;2022-07-29T12:53:24;27.20;1.00
4811;DHT22;2419;51.276;6.472;2022-07-29T12:55:56;27.50;1.00
4811;DHT22;2419;51.276;6.472;2022-07-29T12:58:59;27.70;99.90
4811;DHT22;2419;51.276;6.472;2022-07-29T13:01:36;27.30;99.90
4811;DHT22;2419;51.276;6.472;2022-07-29T13:04:04;27.20;99.90
4811;DHT22;2419;51.276;6.472;2022-07-29T13:06:36;27.60;1.00
4811;DHT22;2419;51.276;6.472;2022-07-29T13:09:09;27.60;99.90
4811;DHT22;2419;51.276;6.472;2022-07-29T13:11:53;26.80;99.90
4811;DHT22;2419;51.276;6.472;2022-07-29T13:14:31;26.50;43.30
4811;DHT22;2419;51.276;6.472;2022-07-29T13:17:01;26.50;1.00
4811;DHT22;2419;51.276;6.472;2022-07-29T13:19:35;26.40;99.90
4811;DHT22;2419;51.276;6.472;2022-07-29T13:22:05;25.90;27.60
4811;DHT22;2419;51.276;6.472;2022-07-29T13:24:46;25.60;99.90
4811;DHT22;2419;51.276;6.472;2022-07-29T13:27:40;25.50;1.00
4811;DHT22;2419;51.276;6.472;2022-07-29T13:30:09;25.30;99.90
4811;DHT22;2419;51.276;6.472;2022-07-29T13:32:38;25.20;41.00
4811;DHT22;2419;51.276;6.472;2022-07-29T13:35:07;25.40;97.60
4811;DHT22;2419;51.276;6.472;2022-07-29T13:37:37;25.70;1.00
4811;DHT22;2419;51.276;6.472;2022-07-29T13:40:07;25.70;1.00
4811;DHT22;2419;51.276;6.472;2022-07-29T13:42:36;25.80;48.70
4811;DHT22;2419;51.276;6.472;2022-07-29T13:45:05;25.60;99.90
4811;DHT22;2419;51.276;6.472;2022-07-29T13:47:34;25.70;99.90
4811;DHT22;2419;51.276;6.472;2022-07-29T13:50:04;25.50;99.90
4811;DHT22;2419;51.276;6.472;2022-07-29T13:52:33;25.60;1.00
4811;DHT22;2419;51.276;6.472;2022-07-29T13:55:04;25.80;1.00
4811;DHT22;2419;51.276;6.472;2022-07-29T13:57:32;25.60;99.90
4811;DHT22;2419;51.276;6.472;2022-07-29T14:00:00;25.80;86.30
4811;DHT22;2419;51.276;6.472;2022-07-29T14:02:34;25.80;99.90
4811;DHT22;2419;51.276;6.472;2022-07-29T14:05:02;26.00;99.90
4811;DHT22;2419;51.276;6.472;2022-07-29T14:07:34;26.00;99.90
4811;DHT22;2419;51.276;6.472;2022-07-29T14:10:04;26.10;99.90
4811;DHT22;2419;51.276;6.472;2022-07-29T14:12:33;26.20;92.70
4811;DHT22;2419;51.276;6.472;2022-07-29T14:15:01;26.10;1.00
4811;DHT22;2419;51.276;6.472;2022-07-29T14:17:29;26.30;99.90
4811;DHT22;2419;51.276;6.472;2022-07-29T14:19:57;26.30;99.90
4811;DHT22;2419;51.276;6.472;2022-07-29T14:22:25;25.80;99.90
4811;DHT22;2419;51.276;6.472;2022-07-29T14:24:54;25.80;99.90
4811;DHT22;2419;51.276;6.472;2022-07-29T14:27:32;25.90;99.90
4811;DHT22;2419;51.276;6.472;2022-07-29T14:30:05;25.80;99.90
4811;DHT22;2419;51.276;6.472;2022-07-29T14:32:33;25.90;99.90
4811;DHT22;2419;51.276;6.472;2022-07-29T14:35:01;25.90;99.90
4811;DHT22;2419;51.276;6.472;2022-07-29T14:37:29;26.10;99.90
4811;DHT22;2419;51.276;6.472;2022-07-29T14:40:06;26.20;1.00
4811;DHT22;2419;51.276;6.472;2022-07-29T14:42:36;25.90;99.90
4811;DHT22;2419;51.276;6.472;2022-07-29T14:45:06;26.00;91.20
4811;DHT22;2419;51.276;6.472;2022-07-29T14:47:35;26.00;99.90
4811;DHT22;2419;51.276;6.472;2022-07-29T14:50:04;25.90;1.00
4811;DHT22;2419;51.276;6.472;2022-07-29T14:52:33;26.10;1.00
4811;DHT22;2419;51.276;6.472;2022-07-29T14:55:01;26.30;46.70
4811;DHT22;2419;51.276;6.472;2022-07-29T14:57:30;26.20;99.90
4811;DHT22;2419;51.276;6.472;2022-07-29T15:00:00;26.40;99.90
4811;DHT22;2419;51.276;6.472;2022-07-29T15:02:28;26.50;1.00
4811;DHT22;2419;51.276;6.472;2022-07-29T15:05:17;26.20;74.50
4811;DHT22;2419;51.276;6.472;2022-07-29T15:07:45;26.20;99.90
4811;DHT22;2419;51.276;6.472;2022-07-29T15:10:22;26.30;99.90
4811;DHT22;2419;51.276;6.472;2022-07-29T15:13:08;26.20;99.90
4811;DHT22;2419;51.276;6.472;2022-07-29T15:15:37;26.20;99.90
4811;DHT22;2419;51.276;6.472;2022-07-29T15:18:05;26.30;99.90
4811;DHT22;2419;51.276;6.472;2022-07-29T15:20:34;26.20;1.00
4811;DHT22;2419;51.276;6.472;2022-07-29T15:23:02;26.40;99.90
4811;DHT22;2419;51.276;6.472;2022-07-29T15:25:30;26.40;52.30
4811;DHT22;2419;51.276;6.472;2022-07-29T15:27:59;26.40;99.90
4811;DHT22;2419;51.276;6.472;2022-07-29T15:30:30;26.30;1.00
4811;DHT22;2419;51.276;6.472;2022-07-29T15:33:02;26.20;99.90
4811;DHT22;2419;51.276;6.472;2022-07-29T15:35:31;26.10;99.90
4811;DHT22;2419;51.276;6.472;2022-07-29T15:38:06;26.10;1.00
4811;DHT22;2419;51.276;6.472;2022-07-29T15:40:37;25.90;1.00
4811;DHT22;2419;51.276;6.472;2022-07-29T15:43:08;25.80;78.80
4811;DHT22;2419;51.276;6.472;2022-07-29T15:45:37;25.90;99.90
4811;DHT22;2419;51.276;6.472;2022-07-29T15:48:08;26.20;1.00
4811;DHT22;2419;51.276;6.472;2022-07-29T15:50:40;26.30;99.90
4811;DHT22;2419;51.276;6.472;2022-07-29T15:53:13;26.20;99.90
4811;DHT22;2419;51.276;6.472;2022-07-29T15:55:41;26.20;99.90
4811;DHT22;2419;51.276;6.472;2022-07-29T15:58:10;26.00;99.90
4811;DHT22;2419;51.276;6.472;2022-07-29T16:00:38;25.80;93.80
4811;DHT22;2419;51.276;6.472;2022-07-29T16:03:07;25.80;1.00
4811;DHT22;2419;51.276;6.472;2022-07-29T16:05:38;25.50;1.00
4811;DHT22;2419;51.276;6.472;2022-07-29T16:08:06;25.50;5.30
4811;DHT22;2419;51.276;6.472;2022-07-29T16:10:34;25.50;99.90
4811;DHT22;2419;51.276;6.472;2022-07-29T16:13:03;25.50;99.90
4811;DHT22;2419;51.276;6.472;2022-07-29T16:15:31;25.40;99.90
4811;DHT22;2419;51.276;6.472;2022-07-29T16:17:59;25.40;99.90
4811;DHT22;2419;51.276;6.472;2022-07-29T16:20:30;25.40;1.00
4811;DHT22;2419;51.276;6.472;2022-07-29T16:22:58;25.40;99.90
4811;DHT22;2419;51.276;6.472;2022-07-29T16:25:27;25.40;99.90
4811;DHT22;2419;51.276;6.472;2022-07-29T16:28:15;25.50;99.90
4811;DHT22;2419;51.276;6.472;2022-07-29T16:30:44;25.50;99.90
4811;DHT22;2419;51.276;6.472;2022-07-29T16:33:12;25.50;98.80
4811;DHT22;2419;51.276;6.472;2022-07-29T16:35:42;25.50;99.90
4811;DHT22;2419;51.276;6.472;2022-07-29T16:38:10;25.30;1.00
4811;DHT22;2419;51.276;6.472;2022-07-29T16:40:38;25.20;1.00
4811;DHT22;2419;51.276;6.472;2022-07-29T16:43:06;25.00;99.90
4811;DHT22;2419;51.276;6.472;2022-07-29T16:45:35;25.00;99.90